sensor_id;sensor_type;location;lat;lon;timestamp;pressure;altitude;pressure_sealevel;temperature;humidity
70445;BME280;57902;49.638;11.070;2023-02-01T00:00:27;98657.78;;;3.30;100.00
70445;BME280;57902;49.638;11.070;2023-02-01T00:02:56;98648.44;;;3.32;100.00
70445;BME280;57902;49.638;11.070;2023-02-01T00:05:23;98648.41;;;3.29;100.00
70445;BME280;57902;49.638;11.070;2023-02-01T00:07:49;98652.66;;;3.29;100.00
70445;BME280;57902;49.638;11.070;2023-02-01T00:10:16;98653.47;;;3.23;100.00
70445;BME280;57902;49.638;11.070;2023-02-01T00:12:43;98650.03;;;3.18;100.00
70445;BME280;57902;49.638;11.070;2023-02-01T00:15:09;98648.28;;;3.11;100.00
70445;BME280;57902;49.638;11.070;2023-02-01T00:17:36;98638.97;;;3.08;100.00
70445;BME280;57902;49.638;11.070;2023-02-01T00:20:03;98647.41;;;3.04;100.00
70445;BME280;57902;49.638;11.070;2023-02-01T00:22:29;98641.47;;;3.04;100.00
70445;BME280;57902;49.638;11.070;2023-02-01T00:24:56;98637.22;;;3.03;100.00
70445;BME280;57902;49.638;11.070;2023-02-01T00:27:22;98638.06;;;3.03;100.00
70445;BME280;57902;49.638;11.070;2023-02-01T00:29:49;98642.34;;;3.04;100.00
70445;BME280;57902;49.638;11.070;2023-02-01T00:32:15;98643.16;;;3.05;100.00
70445;BME280;57902;49.638;11.070;2023-02-01T00:34:42;98646.59;;;3.08;100.00
70445;BME280;57902;49.638;11.070;2023-02-01T00:37:08;98639.84;;;3.15;100.00
70445;BME280;57902;49.638;11.070;2023-02-01T00:39:35;98624.56;;;3.15;100.00
70445;BME280;57902;49.638;11.070;2023-02-01T00:42:01;98625.44;;;3.20;100.00
70445;BME280;57902;49.638;11.070;2023-02-01T00:44:28;98619.47;;;3.21;100.00
70445;BME280;57902;49.638;11.070;2023-02-01T00:47:00;98610.97;;;3.16;100.00
70445;BME280;57902;49.638;11.070;2023-02-01T00:49:27;98627.13;;;3.20;100.00
70445;BME280;57902;49.638;11.070;2023-02-01T00:51:53;98620.34;;;3.20;100.00
70445;BME280;57902;49.638;11.070;2023-02-01T00:54:20;98619.47;;;3.18;100.00
70445;BME280;57902;49.638;11.070;2023-02-01T00:56:46;98622.06;;;3.26;100.00
70445;BME280;57902;49.638;11.070;2023-02-01T00:59:16;98628.03;;;3.26;100.00
70445;BME280;57902;49.638;11.070;2023-02-01T01:01:42;98620.38;;;3.26;100.00
70445;BME280;57902;49.638;11.070;2023-02-01T01:04:09;98616.13;;;3.28;100.00
70445;BME280;57902;49.638;11.070;2023-02-01T01:06:35;98628.03;;;3.29;100.00
70445;BME280;57902;49.638;11.070;2023-02-01T01:09:05;98628.88;;;3.31;100.00
70445;BME280;57902;49.638;11.070;2023-02-01T01:11:36;98627.22;;;3.37;100.00
70445;BME280;57902;49.638;11.070;2023-02-01T01:14:04;98621.25;;;3.38;100.00
70445;BME280;57902;49.638;11.070;2023-02-01T01:16:31;98623.84;;;3.41;100.00
70445;BME280;57902;49.638;11.070;2023-02-01T01:18:58;98622.97;;;3.42;100.00
70445;BME280;57902;49.638;11.070;2023-02-01T01:21:26;98615.34;;;3.45;100.00
70445;BME280;57902;49.638;11.070;2023-02-01T01:23:53;98617.91;;;3.45;100.00
70445;BME280;57902;49.638;11.070;2023-02-01T01:26:22;98628.09;;;3.45;100.00
70445;BME280;57902;49.638;11.070;2023-02-01T01:28:50;98632.34;;;3.49;100.00
70445;BME280;57902;49.638;11.070;2023-02-01T01:31:18;98626.41;;;3.47;100.00
70445;BME280;57902;49.638;11.070;2023-02-01T01:33:53;98626.41;;;3.47;100.00
70445;BME280;57902;49.638;11.070;2023-02-01T01:36:21;98628.97;;;3.45;100.00
70445;BME280;57902;49.638;11.070;2023-02-01T01:38:47;98631.53;;;3.47;100.00
70445;BME280;57902;49.638;11.070;2023-02-01T01:41:23;98620.41;;;3.39;100.00
70445;BME280;57902;49.638;11.070;2023-02-01T01:46:40;98618.69;;;3.33;100.00
70445;BME280;57902;49.638;11.070;2023-02-01T01:49:11;98607.66;;;3.32;100.00
70445;BME280;57902;49.638;11.070;2023-02-01T01:51:45;98604.22;;;3.27;100.00
70445;BME280;57902;49.638;11.070;2023-02-01T01:54:19;98610.19;;;3.31;100.00
70445;BME280;57902;49.638;11.070;2023-02-01T01:56:55;98619.56;;;3.32;100.00
70445;BME280;57902;49.638;11.070;2023-02-01T01:59:23;98614.47;;;3.35;100.00
70445;BME280;57902;49.638;11.070;2023-02-01T02:01:50;98611.94;;;3.40;100.00
70445;BME280;57902;49.638;11.070;2023-02-01T02:04:18;98617.88;;;3.39;100.00
70445;BME280;57902;49.638;11.070;2023-02-01T02:06:57;98610.22;;;3.34;100.00
70445;BME280;57902;49.638;11.070;2023-02-01T02:09:26;98613.59;;;3.35;100.00
70445;BME280;57902;49.638;11.070;2023-02-01T02:11:52;98600.03;;;3.39;100.00
70445;BME280;57902;49.638;11.070;2023-02-01T02:14:20;98603.41;;;3.35;100.00
70445;BME280;57902;49.638;11.070;2023-02-01T02:22:32;98590.66;;;3.28;100.00
70445;BME280;57902;49.638;11.070;2023-02-01T02:25:42;98583.91;;;3.37;100.00
70445;BME280;57902;49.638;11.070;2023-02-01T02:31:40;98583.88;;;3.30;100.00
70445;BME280;57902;49.638;11.070;2023-02-01T02:39:58;98572.00;;;3.42;100.00
70445;BME280;57902;49.638;11.070;2023-02-01T02:43:02;98576.25;;;3.38;100.00
70445;BME280;57902;49.638;11.070;2023-02-01T02:45:55;98584.75;;;3.39;100.00
70445;BME280;57902;49.638;11.070;2023-02-01T02:48:50;98568.63;;;3.46;100.00
70445;BME280;57902;49.638;11.070;2023-02-01T02:51:27;98578.00;;;3.48;100.00
70445;BME280;57902;49.638;11.070;2023-02-01T02:54:27;98577.13;;;3.48;100.00
70445;BME280;57902;49.638;11.070;2023-02-01T02:57:31;98562.69;;;3.45;100.00
70445;BME280;57902;49.638;11.070;2023-02-01T03:00:20;98553.34;;;3.41;100.00
70445;BME280;57902;49.638;11.070;2023-02-01T03:03:06;98551.66;;;3.49;100.00
70445;BME280;57902;49.638;11.070;2023-02-01T03:05:52;98552.50;;;3.47;100.00
70445;BME280;57902;49.638;11.070;2023-02-01T03:08:29;98552.50;;;3.52;100.00
70445;BME280;57902;49.638;11.070;2023-02-01T03:11:08;98542.31;;;3.52;100.00
70445;BME280;57902;49.638;11.070;2023-02-01T03:13:54;98538.94;;;3.54;100.00
70445;BME280;57902;49.638;11.070;2023-02-01T03:19:02;98548.25;;;3.52;100.00
70445;BME280;57902;49.638;11.070;2023-02-01T03:21:43;98553.34;;;3.49;100.00
70445;BME280;57902;49.638;11.070;2023-02-01T03:24:21;98563.53;;;3.47;100.00
70445;BME280;57902;49.638;11.070;2023-02-01T03:26:55;98558.44;;;3.49;100.00
70445;BME280;57902;49.638;11.070;2023-02-01T03:29:38;98545.69;;;3.47;100.00
70445;BME280;57902;49.638;11.070;2023-02-01T03:32:07;98547.38;;;3.39;100.00
70445;BME280;57902;49.638;11.070;2023-02-01T03:34:36;98543.97;;;3.36;100.00
70445;BME280;57902;49.638;11.070;2023-02-01T03:37:06;98526.97;;;3.36;100.00
70445;BME280;57902;49.638;11.070;2023-02-01T03:39:39;98555.88;;;3.38;100.00
70445;BME280;57902;49.638;11.070;2023-02-01T03:42:14;98559.25;;;3.39;100.00
70445;BME280;57902;49.638;11.070;2023-02-01T03:45:26;98564.38;;;3.40;100.00
70445;BME280;57902;49.638;11.070;2023-02-01T03:47:57;98554.19;;;3.45;100.00
70445;BME280;57902;49.638;11.070;2023-02-01T03:50:27;98532.09;;;3.44;100.00
70445;BME280;57902;49.638;11.070;2023-02-01T03:52:58;98535.50;;;3.41;100.00
70445;BME280;57902;49.638;11.070;2023-02-01T03:55:28;98534.59;;;3.36;100.00
70445;BME280;57902;49.638;11.070;2023-02-01T03:58:04;98527.84;;;3.40;100.00
70445;BME280;57902;49.638;11.070;2023-02-01T04:00:32;98522.75;;;3.43;100.00
70445;BME280;57902;49.638;11.070;2023-02-01T04:02:59;98521.91;;;3.44;100.00
70445;BME280;57902;49.638;11.070;2023-02-01T04:05:26;98524.47;;;3.44;100.00
70445;BME280;57902;49.638;11.070;2023-02-01T04:07:52;98525.28;;;3.40;100.00
70445;BME280;57902;49.638;11.070;2023-02-01T04:10:20;98525.31;;;3.43;100.00
70445;BME280;57902;49.638;11.070;2023-02-01T04:12:47;98532.09;;;3.41;100.00
70445;BME280;57902;49.638;11.070;2023-02-01T04:15:14;98521.91;;;3.41;100.00
70445;BME280;57902;49.638;11.070;2023-02-01T04:17:40;98517.66;;;3.40;100.00
70445;BME280;57902;49.638;11.070;2023-02-01T04:20:07;98523.59;;;3.45;100.00
70445;BME280;57902;49.638;11.070;2023-02-01T04:22:35;98513.38;;;3.37;100.00
70445;BME280;57902;49.638;11.070;2023-02-01T04:25:02;98517.63;;;3.35;100.00
70445;BME280;57902;49.638;11.070;2023-02-01T04:27:28;98519.31;;;3.31;100.00
70445;BME280;57902;49.638;11.070;2023-02-01T04:29:55;98521.03;;;3.36;100.00
70445;BME280;57902;49.638;11.070;2023-02-01T04:32:23;98526.13;;;3.32;100.00
70445;BME280;57902;49.638;11.070;2023-02-01T04:34:50;98523.56;;;3.31;100.00
70445;BME280;57902;49.638;11.070;2023-02-01T04:37:16;98516.75;;;3.33;100.00
70445;BME280;57902;49.638;11.070;2023-02-01T04:39:43;98512.50;;;3.26;100.00
70445;BME280;57902;49.638;11.070;2023-02-01T04:42:09;98512.53;;;3.30;100.00
70445;BME280;57902;49.638;11.070;2023-02-01T04:44:36;98520.19;;;3.33;100.00
70445;BME280;57902;49.638;11.070;2023-02-01T04:47:05;98532.94;;;3.33;100.00
70445;BME280;57902;49.638;11.070;2023-02-01T04:49:32;98523.56;;;3.31;100.00
70445;BME280;57902;49.638;11.070;2023-02-01T04:51:58;98519.31;;;3.31;100.00
70445;BME280;57902;49.638;11.070;2023-02-01T04:54:24;98515.91;;;3.29;100.00
70445;BME280;57902;49.638;11.070;2023-02-01T04:56:51;98522.75;;;3.35;100.00
70445;BME280;57902;49.638;11.070;2023-02-01T04:59:20;98522.75;;;3.35;100.00
70445;BME280;57902;49.638;11.070;2023-02-01T05:01:47;98516.75;;;3.31;100.00
70445;BME280;57902;49.638;11.070;2023-02-01T05:04:14;98516.75;;;3.25;100.00
70445;BME280;57902;49.638;11.070;2023-02-01T05:06:40;98511.66;;;3.28;100.00
70445;BME280;57902;49.638;11.070;2023-02-01T05:09:07;98514.22;;;3.30;100.00
70445;BME280;57902;49.638;11.070;2023-02-01T05:11:33;98511.66;;;3.27;100.00
70445;BME280;57902;49.638;11.070;2023-02-01T05:14:19;98515.03;;;3.21;100.00
70445;BME280;57902;49.638;11.070;2023-02-01T05:16:46;98513.34;;;3.23;100.00
70445;BME280;57902;49.638;11.070;2023-02-01T05:19:12;98500.63;;;3.20;100.00
70445;BME280;57902;49.638;11.070;2023-02-01T05:21:39;98509.94;;;3.21;100.00
70445;BME280;57902;49.638;11.070;2023-02-01T05:24:07;98508.25;;;3.20;100.00
70445;BME280;57902;49.638;11.070;2023-02-01T05:26:41;98507.41;;;3.24;100.00
70445;BME280;57902;49.638;11.070;2023-02-01T05:29:09;98515.03;;;3.23;100.00
70445;BME280;57902;49.638;11.070;2023-02-01T05:31:36;98509.94;;;3.21;100.00
70445;BME280;57902;49.638;11.070;2023-02-01T05:34:03;98510.81;;;3.20;100.00
70445;BME280;57902;49.638;11.070;2023-02-01T05:36:30;98507.38;;;3.21;100.00
70445;BME280;57902;49.638;11.070;2023-02-01T05:38:57;98510.81;;;3.20;100.00
70445;BME280;57902;49.638;11.070;2023-02-01T05:41:24;98503.16;;;3.25;100.00
70445;BME280;57902;49.638;11.070;2023-02-01T05:43:50;98492.97;;;3.19;100.00
70445;BME280;57902;49.638;11.070;2023-02-01T05:46:17;98495.47;;;3.17;100.00
70445;BME280;57902;49.638;11.070;2023-02-01T05:48:43;98491.25;;;3.13;100.00
70445;BME280;57902;49.638;11.070;2023-02-01T05:51:10;98486.16;;;3.13;100.00
70445;BME280;57902;49.638;11.070;2023-02-01T05:53:37;98487.84;;;3.17;100.00
70445;BME280;57902;49.638;11.070;2023-02-01T05:56:04;98492.09;;;3.20;100.00
70445;BME280;57902;49.638;11.070;2023-02-01T05:58:31;98487.84;;;3.17;100.00
70445;BME280;57902;49.638;11.070;2023-02-01T06:01:02;98480.19;;;3.11;100.00
70445;BME280;57902;49.638;11.070;2023-02-01T06:03:29;98486.13;;;3.10;100.00
70445;BME280;57902;49.638;11.070;2023-02-01T06:05:55;98481.88;;;3.09;100.00
70445;BME280;57902;49.638;11.070;2023-02-01T06:08:22;98481.00;;;3.05;100.00
70445;BME280;57902;49.638;11.070;2023-02-01T06:10:57;98482.72;;;3.05;100.00
70445;BME280;57902;49.638;11.070;2023-02-01T06:13:24;98480.97;;;2.99;100.00
70445;BME280;57902;49.638;11.070;2023-02-01T06:15:50;98480.16;;;2.97;100.00
70445;BME280;57902;49.638;11.070;2023-02-01T06:18:17;98481.81;;;2.96;100.00
70445;BME280;57902;49.638;11.070;2023-02-01T06:20:44;98483.53;;;2.96;100.00
70445;BME280;57902;49.638;11.070;2023-02-01T06:23:10;98480.13;;;2.95;100.00
70445;BME280;57902;49.638;11.070;2023-02-01T06:25:40;98486.97;;;3.03;100.00
70445;BME280;57902;49.638;11.070;2023-02-01T06:28:06;98490.34;;;3.05;100.00
70445;BME280;57902;49.638;11.070;2023-02-01T06:30:34;98493.72;;;2.99;100.00
70445;BME280;57902;49.638;11.070;2023-02-01T06:33:00;98479.28;;;2.96;100.00
70445;BME280;57902;49.638;11.070;2023-02-01T06:35:27;98483.53;;;2.97;100.00
70445;BME280;57902;49.638;11.070;2023-02-01T06:37:53;98480.97;;;2.91;100.00
70445;BME280;57902;49.638;11.070;2023-02-01T06:40:23;98475.88;;;2.88;100.00
70445;BME280;57902;49.638;11.070;2023-02-01T06:42:50;98483.50;;;2.87;100.00
70445;BME280;57902;49.638;11.070;2023-02-01T06:45:16;98482.63;;;2.86;100.00
70445;BME280;57902;49.638;11.070;2023-02-01T06:47:42;98478.41;;;2.88;100.00
70445;BME280;57902;49.638;11.070;2023-02-01T06:50:09;98486.06;;;2.94;100.00
70445;BME280;57902;49.638;11.070;2023-02-01T06:52:36;98475.03;;;2.94;100.00
70445;BME280;57902;49.638;11.070;2023-02-01T06:55:02;98484.34;;;2.93;100.00
70445;BME280;57902;49.638;11.070;2023-02-01T06:57:29;98480.13;;;2.95;100.00
70445;BME280;57902;49.638;11.070;2023-02-01T06:59:57;98478.44;;;2.97;100.00
70445;BME280;57902;49.638;11.070;2023-02-01T07:02:24;98487.78;;;2.97;100.00
70445;BME280;57902;49.638;11.070;2023-02-01T07:04:51;98481.88;;;3.03;100.00
70445;BME280;57902;49.638;11.070;2023-02-01T07:07:17;98477.59;;;3.00;100.00
70445;BME280;57902;49.638;11.070;2023-02-01T07:09:45;98483.53;;;2.99;100.00
70445;BME280;57902;49.638;11.070;2023-02-01T07:12:12;98488.63;;;3.01;100.00
70445;BME280;57902;49.638;11.070;2023-02-01T07:14:38;98486.97;;;3.09;100.00
70445;BME280;57902;49.638;11.070;2023-02-01T07:17:05;98484.44;;;3.07;100.00
70445;BME280;57902;49.638;11.070;2023-02-01T07:19:31;98481.06;;;3.16;100.00
70445;BME280;57902;49.638;11.070;2023-02-01T07:21:58;98482.72;;;3.14;100.00
70445;BME280;57902;49.638;11.070;2023-02-01T07:24:24;98484.44;;;3.13;100.00
70445;BME280;57902;49.638;11.070;2023-02-01T07:26:51;98480.22;;;3.19;100.00
70445;BME280;57902;49.638;11.070;2023-02-01T07:29:18;98489.56;;;3.20;100.00
70445;BME280;57902;49.638;11.070;2023-02-01T07:31:45;98476.81;;;3.20;100.00
70445;BME280;57902;49.638;11.070;2023-02-01T07:34:11;98481.91;;;3.18;100.00
70445;BME280;57902;49.638;11.070;2023-02-01T07:36:38;98480.25;;;3.23;100.00
70445;BME280;57902;49.638;11.070;2023-02-01T07:39:04;98493.81;;;3.24;100.00
70445;BME280;57902;49.638;11.070;2023-02-01T07:41:31;98492.16;;;3.30;100.00
70445;BME280;57902;49.638;11.070;2023-02-01T07:43:57;98489.56;;;3.26;100.00
70445;BME280;57902;49.638;11.070;2023-02-01T07:46:24;98481.09;;;3.28;100.00
70445;BME280;57902;49.638;11.070;2023-02-01T07:48:50;98480.25;;;3.28;100.00
70445;BME280;57902;49.638;11.070;2023-02-01T07:51:17;98485.34;;;3.26;100.00
70445;BME280;57902;49.638;11.070;2023-02-01T07:53:44;98481.09;;;3.31;100.00
70445;BME280;57902;49.638;11.070;2023-02-01T07:56:13;98479.41;;;3.32;100.00
70445;BME280;57902;49.638;11.070;2023-02-01T07:58:40;98477.72;;;3.45;100.00
70445;BME280;57902;49.638;11.070;2023-02-01T08:01:16;98478.59;;;3.47;100.00
70445;BME280;57902;49.638;11.070;2023-02-01T08:03:47;98487.09;;;3.55;100.00
70445;BME280;57902;49.638;11.070;2023-02-01T08:06:14;98497.31;;;3.58;100.00
70445;BME280;57902;49.638;11.070;2023-02-01T08:08:41;98489.69;;;3.66;100.00
70445;BME280;57902;49.638;11.070;2023-02-01T08:11:11;98488.00;;;3.79;100.00
70445;BME280;57902;49.638;11.070;2023-02-01T08:13:37;98486.28;;;3.89;100.00
70445;BME280;57902;49.638;11.070;2023-02-01T08:16:06;98481.19;;;3.84;100.00
70445;BME280;57902;49.638;11.070;2023-02-01T08:18:35;98490.53;;;3.87;100.00
70445;BME280;57902;49.638;11.070;2023-02-01T08:21:06;98479.47;;;3.84;100.00
70445;BME280;57902;49.638;11.070;2023-02-01T08:23:34;98488.00;;;3.90;100.00
70445;BME280;57902;49.638;11.070;2023-02-01T08:28:31;98499.03;;;3.96;100.00
70445;BME280;57902;49.638;11.070;2023-02-01T08:30:58;98494.81;;;3.95;100.00
70445;BME280;57902;49.638;11.070;2023-02-01T08:33:24;98494.78;;;4.08;100.00
70445;BME280;57902;49.638;11.070;2023-02-01T08:35:51;98499.03;;;4.12;100.00
70445;BME280;57902;49.638;11.070;2023-02-01T08:38:17;98502.47;;;4.18;100.00
70445;BME280;57902;49.638;11.070;2023-02-01T08:40:44;98495.66;;;4.19;100.00
70445;BME280;57902;49.638;11.070;2023-02-01T08:43:11;98507.53;;;4.29;100.00
70445;BME280;57902;49.638;11.070;2023-02-01T08:45:39;98518.59;;;4.39;100.00
70445;BME280;57902;49.638;11.070;2023-02-01T08:48:06;98504.97;;;4.40;100.00
70445;BME280;57902;49.638;11.070;2023-02-01T08:50:32;98514.34;;;4.44;100.00
70445;BME280;57902;49.638;11.070;2023-02-01T08:52:59;98508.38;;;4.47;100.00
70445;BME280;57902;49.638;11.070;2023-02-01T08:55:25;98504.13;;;4.44;100.00
70445;BME280;57902;49.638;11.070;2023-02-01T08:57:52;98510.94;;;4.47;100.00
70445;BME280;57902;49.638;11.070;2023-02-01T09:00:19;98510.06;;;4.55;100.00
70445;BME280;57902;49.638;11.070;2023-02-01T09:02:45;98513.44;;;4.61;99.04
70445;BME280;57902;49.638;11.070;2023-02-01T09:05:12;98521.09;;;4.62;100.00
70445;BME280;57902;49.638;11.070;2023-02-01T09:07:40;98515.13;;;4.69;98.81
70445;BME280;57902;49.638;11.070;2023-02-01T09:10:07;98513.44;;;4.76;99.97
70445;BME280;57902;49.638;11.070;2023-02-01T09:12:35;98522.75;;;4.93;97.85
70445;BME280;57902;49.638;11.070;2023-02-01T09:17:32;98539.78;;;4.90;97.46
70445;BME280;57902;49.638;11.070;2023-02-01T09:19:58;98556.78;;;4.96;97.32
70445;BME280;57902;49.638;11.070;2023-02-01T09:22:25;98547.44;;;4.92;97.15
70445;BME280;57902;49.638;11.070;2023-02-01T09:24:52;98553.38;;;4.96;96.69
70445;BME280;57902;49.638;11.070;2023-02-01T09:27:20;98555.94;;;4.94;96.09
70445;BME280;57902;49.638;11.070;2023-02-01T09:29:47;98550.84;;;4.91;96.36
70445;BME280;57902;49.638;11.070;2023-02-01T09:32:20;98555.94;;;4.93;96.62
70445;BME280;57902;49.638;11.070;2023-02-01T09:34:47;98560.22;;;4.84;97.64
70445;BME280;57902;49.638;11.070;2023-02-01T09:37:13;98561.91;;;4.88;97.32
70445;BME280;57902;49.638;11.070;2023-02-01T09:39:40;98567.91;;;4.87;96.60
70445;BME280;57902;49.638;11.070;2023-02-01T09:42:24;98555.97;;;4.88;96.65
70445;BME280;57902;49.638;11.070;2023-02-01T09:47:51;98565.31;;;4.98;96.54
70445;BME280;57902;49.638;11.070;2023-02-01T09:50:22;98566.94;;;5.18;93.88
70445;BME280;57902;49.638;11.070;2023-02-01T09:53:03;98562.63;;;5.35;95.71
70445;BME280;57902;49.638;11.070;2023-02-01T09:55:41;98561.63;;;5.70;92.90
70445;BME280;57902;49.638;11.070;2023-02-01T09:58:22;98568.34;;;5.84;89.71
70445;BME280;57902;49.638;11.070;2023-02-01T10:00:55;98578.56;;;5.87;88.06
70445;BME280;57902;49.638;11.070;2023-02-01T10:03:24;98582.88;;;5.80;88.65
70445;BME280;57902;49.638;11.070;2023-02-01T10:06:07;98564.13;;;5.76;86.57
70445;BME280;57902;49.638;11.070;2023-02-01T10:15:35;98577.06;;;5.47;86.39
70445;BME280;57902;49.638;11.070;2023-02-01T10:28:46;98572.81;;;5.43;86.85
70445;BME280;57902;49.638;11.070;2023-02-01T10:31:15;98583.03;;;5.43;87.00
70445;BME280;57902;49.638;11.070;2023-02-01T10:33:56;98582.16;;;5.50;87.62
70445;BME280;57902;49.638;11.070;2023-02-01T10:36:29;98580.47;;;5.49;88.37
70445;BME280;57902;49.638;11.070;2023-02-01T10:38:58;98583.81;;;5.59;87.09
70445;BME280;57902;49.638;11.070;2023-02-01T10:41:33;98571.03;;;5.57;85.89
70445;BME280;57902;49.638;11.070;2023-02-01T10:44:03;98593.22;;;5.57;86.69
70445;BME280;57902;49.638;11.070;2023-02-01T10:46:33;98595.81;;;5.54;86.49
70445;BME280;57902;49.638;11.070;2023-02-01T10:49:02;98589.00;;;5.50;87.32
70445;BME280;57902;49.638;11.070;2023-02-01T10:51:58;98589.84;;;5.46;88.06
70445;BME280;57902;49.638;11.070;2023-02-01T10:54:36;98583.91;;;5.43;87.67
70445;BME280;57902;49.638;11.070;2023-02-01T10:57:21;98587.34;;;5.33;89.68
70445;BME280;57902;49.638;11.070;2023-02-01T10:59:48;98580.50;;;5.38;89.82
70445;BME280;57902;49.638;11.070;2023-02-01T11:02:29;98572.00;;;5.36;89.42
70445;BME280;57902;49.638;11.070;2023-02-01T11:05:05;98564.38;;;5.30;89.86
70445;BME280;57902;49.638;11.070;2023-02-01T11:07:36;98566.88;;;5.36;89.54
70445;BME280;57902;49.638;11.070;2023-02-01T11:10:04;98554.91;;;5.44;89.49
70445;BME280;57902;49.638;11.070;2023-02-01T11:12:36;98558.34;;;5.43;88.84
70445;BME280;57902;49.638;11.070;2023-02-01T11:15:36;98551.50;;;5.46;89.05
70445;BME280;57902;49.638;11.070;2023-02-01T11:18:18;98544.63;;;5.60;88.16
70445;BME280;57902;49.638;11.070;2023-02-01T11:20:46;98543.69;;;5.73;86.46
70445;BME280;57902;49.638;11.070;2023-02-01T11:23:17;98541.09;;;5.76;86.50
70445;BME280;57902;49.638;11.070;2023-02-01T11:25:53;98532.56;;;5.79;85.68
70445;BME280;57902;49.638;11.070;2023-02-01T11:28:23;98534.25;;;5.82;84.82
70445;BME280;57902;49.638;11.070;2023-02-01T11:30:55;98528.31;;;5.78;86.34
70445;BME280;57902;49.638;11.070;2023-02-01T11:33:26;98532.59;;;5.77;87.05
70445;BME280;57902;49.638;11.070;2023-02-01T11:35:57;98519.81;;;5.74;87.38
70445;BME280;57902;49.638;11.070;2023-02-01T11:38:29;98521.44;;;5.85;87.67
70445;BME280;57902;49.638;11.070;2023-02-01T11:41:12;98517.16;;;5.87;87.26
70445;BME280;57902;49.638;11.070;2023-02-01T11:43:57;98513.69;;;5.94;86.43
70445;BME280;57902;49.638;11.070;2023-02-01T11:46:31;98521.31;;;6.09;84.48
70445;BME280;57902;49.638;11.070;2023-02-01T11:49:19;98522.25;;;5.99;85.56
70445;BME280;57902;49.638;11.070;2023-02-01T11:55:17;98515.34;;;6.06;82.98
70445;BME280;57902;49.638;11.070;2023-02-01T11:58:00;98523.88;;;6.09;82.65
70445;BME280;57902;49.638;11.070;2023-02-01T12:28:45;98490.00;;;5.67;78.89
70445;BME280;57902;49.638;11.070;2023-02-01T12:34:28;98491.75;;;5.60;79.76
70445;BME280;57902;49.638;11.070;2023-02-01T12:39:48;98488.34;;;5.60;78.98
70445;BME280;57902;49.638;11.070;2023-02-01T12:42:26;98484.09;;;5.56;80.28
70445;BME280;57902;49.638;11.070;2023-02-01T12:45:01;98473.88;;;5.57;80.60
70445;BME280;57902;49.638;11.070;2023-02-01T12:47:42;98485.81;;;5.58;80.88
70445;BME280;57902;49.638;11.070;2023-02-01T12:50:42;98484.03;;;5.67;79.79
70445;BME280;57902;49.638;11.070;2023-02-01T12:53:19;98481.47;;;5.71;78.85
70445;BME280;57902;49.638;11.070;2023-02-01T12:56:00;98479.78;;;5.66;79.28
70445;BME280;57902;49.638;11.070;2023-02-01T12:58:51;98482.41;;;5.58;78.96
70445;BME280;57902;49.638;11.070;2023-02-01T13:01:45;98479.03;;;5.50;79.33
70445;BME280;57902;49.638;11.070;2023-02-01T13:07:33;98464.66;;;5.33;80.91
70445;BME280;57902;49.638;11.070;2023-02-01T13:10:13;98474.06;;;5.25;81.71
70445;BME280;57902;49.638;11.070;2023-02-01T13:12:51;98473.25;;;5.17;83.11
70445;BME280;57902;49.638;11.070;2023-02-01T13:15:28;98462.19;;;5.16;83.46
70445;BME280;57902;49.638;11.070;2023-02-01T13:17:59;98457.91;;;5.14;84.38
70445;BME280;57902;49.638;11.070;2023-02-01T13:20:42;98466.47;;;5.13;84.50
70445;BME280;57902;49.638;11.070;2023-02-01T13:23:26;98455.41;;;5.06;84.41
70445;BME280;57902;49.638;11.070;2023-02-01T13:25:54;98454.50;;;5.16;84.29
70445;BME280;57902;49.638;11.070;2023-02-01T13:28:44;98467.25;;;5.21;83.53
70445;BME280;57902;49.638;11.070;2023-02-01T13:37:05;98460.41;;;5.29;82.01
70445;BME280;57902;49.638;11.070;2023-02-01T13:40:11;98462.13;;;5.25;82.14
70445;BME280;57902;49.638;11.070;2023-02-01T13:42:55;98457.00;;;5.30;81.66
70445;BME280;57902;49.638;11.070;2023-02-01T13:45:24;98441.63;;;5.38;81.42
70445;BME280;57902;49.638;11.070;2023-02-01T13:47:56;98446.78;;;5.32;82.17
70445;BME280;57902;49.638;11.070;2023-02-01T13:52:58;98452.75;;;5.29;81.64
70445;BME280;57902;49.638;11.070;2023-02-01T13:55:29;98445.94;;;5.25;82.23
70445;BME280;57902;49.638;11.070;2023-02-01T13:58:04;98446.00;;;5.16;82.79
70445;BME280;57902;49.638;11.070;2023-02-01T14:00:33;98448.56;;;5.14;82.94
70445;BME280;57902;49.638;11.070;2023-02-01T14:03:09;98441.72;;;5.16;83.51
70445;BME280;57902;49.638;11.070;2023-02-01T14:10:58;98442.59;;;5.18;83.90
70445;BME280;57902;49.638;11.070;2023-02-01T14:24:04;98431.50;;;5.18;83.90
70445;BME280;57902;49.638;11.070;2023-02-01T14:26:48;98442.59;;;5.14;83.71
70445;BME280;57902;49.638;11.070;2023-02-01T14:32:21;98437.47;;;5.14;83.35
70445;BME280;57902;49.638;11.070;2023-02-01T14:35:00;98434.09;;;5.13;83.08
70445;BME280;57902;49.638;11.070;2023-02-01T14:37:30;98433.25;;;5.05;83.03
70445;BME280;57902;49.638;11.070;2023-02-01T14:39:59;98428.16;;;5.08;82.74
70445;BME280;57902;49.638;11.070;2023-02-01T14:42:48;98425.59;;;5.06;82.13
70445;BME280;57902;49.638;11.070;2023-02-01T14:50:43;98433.28;;;5.03;81.02
70445;BME280;57902;49.638;11.070;2023-02-01T14:55:55;98429.06;;;4.95;81.40
70445;BME280;57902;49.638;11.070;2023-02-01T15:01:13;98425.72;;;4.85;82.20
70445;BME280;57902;49.638;11.070;2023-02-01T15:03:52;98426.50;;;4.91;81.65
70445;BME280;57902;49.638;11.070;2023-02-01T15:09:34;98422.28;;;4.89;82.14
70445;BME280;57902;49.638;11.070;2023-02-01T15:12:03;98420.59;;;4.88;82.20
70445;BME280;57902;49.638;11.070;2023-02-01T15:14:34;98423.97;;;4.90;81.73
70445;BME280;57902;49.638;11.070;2023-02-01T15:17:01;98421.41;;;4.93;81.80
70445;BME280;57902;49.638;11.070;2023-02-01T15:19:29;98410.34;;;4.93;82.32
70445;BME280;57902;49.638;11.070;2023-02-01T15:21:57;98411.16;;;4.96;81.95